sensor_id;sensor_type;location;lat;lon;timestamp;P1;durP1;ratioP1;P2;durP2;ratioP2
46777;SDS011;32536;47.128;8.746;2023-12-04T00:01:21;1.98;;;1.73;;
46777;SDS011;32536;47.128;8.746;2023-12-04T00:03:48;2.65;;;2.45;;
46777;SDS011;32536;47.128;8.746;2023-12-04T00:06:15;2.00;;;1.52;;
46777;SDS011;32536;47.128;8.746;2023-12-04T00:08:42;2.28;;;1.40;;
46777;SDS011;32536;47.128;8.746;2023-12-04T00:11:08;2.00;;;1.65;;
46777;SDS011;32536;47.128;8.746;2023-12-04T00:13:35;1.88;;;1.45;;
46777;SDS011;32536;47.128;8.746;2023-12-04T00:16:03;2.47;;;1.88;;
46777;SDS011;32536;47.128;8.746;2023-12-04T00:18:30;2.17;;;1.48;;
46777;SDS011;32536;47.128;8.746;2023-12-04T00:20:57;2.47;;;1.42;;
46777;SDS011;32536;47.128;8.746;2023-12-04T00:23:23;2.25;;;1.60;;
46777;SDS011;32536;47.128;8.746;2023-12-04T00:25:50;2.65;;;2.17;;
46777;SDS011;32536;47.128;8.746;2023-12-04T00:28:17;2.53;;;1.65;;
46777;SDS011;32536;47.128;8.746;2023-12-04T00:30:44;1.75;;;1.65;;
46777;SDS011;32536;47.128;8.746;2023-12-04T00:33:10;2.00;;;1.38;;
46777;SDS011;32536;47.128;8.746;2023-12-04T00:35:37;3.08;;;2.70;;
46777;SDS011;32536;47.128;8.746;2023-12-04T00:38:04;2.15;;;1.80;;
46777;SDS011;32536;47.128;8.746;2023-12-04T00:40:31;2.67;;;2.05;;
46777;SDS011;32536;47.128;8.746;2023-12-04T00:42:58;2.22;;;1.95;;
46777;SDS011;32536;47.128;8.746;2023-12-04T00:45:24;1.77;;;1.17;;
46777;SDS011;32536;47.128;8.746;2023-12-04T00:47:51;2.75;;;2.55;;
46777;SDS011;32536;47.128;8.746;2023-12-04T00:50:18;2.15;;;1.92;;
46777;SDS011;32536;47.128;8.746;2023-12-04T00:52:45;1.50;;;1.40;;
46777;SDS011;32536;47.128;8.746;2023-12-04T00:55:12;1.83;;;1.52;;
46777;SDS011;32536;47.128;8.746;2023-12-04T00:57:39;2.55;;;2.03;;
46777;SDS011;32536;47.128;8.746;2023-12-04T01:00:05;2.97;;;2.08;;
46777;SDS011;32536;47.128;8.746;2023-12-04T01:02:33;2.30;;;2.10;;
46777;SDS011;32536;47.128;8.746;2023-12-04T01:05:00;2.28;;;2.08;;
46777;SDS011;32536;47.128;8.746;2023-12-04T01:07:27;2.05;;;1.88;;
46777;SDS011;32536;47.128;8.746;2023-12-04T01:09:54;2.13;;;1.67;;
46777;SDS011;32536;47.128;8.746;2023-12-04T01:12:21;2.42;;;1.45;;
46777;SDS011;32536;47.128;8.746;2023-12-04T01:14:48;1.90;;;1.65;;
46777;SDS011;32536;47.128;8.746;2023-12-04T01:17:15;1.98;;;1.77;;
46777;SDS011;32536;47.128;8.746;2023-12-04T01:19:41;2.08;;;1.83;;
46777;SDS011;32536;47.128;8.746;2023-12-04T01:22:08;2.75;;;1.92;;
46777;SDS011;32536;47.128;8.746;2023-12-04T01:24:35;2.20;;;2.00;;
46777;SDS011;32536;47.128;8.746;2023-12-04T01:27:02;2.15;;;1.90;;
46777;SDS011;32536;47.128;8.746;2023-12-04T01:29:29;1.70;;;1.45;;
46777;SDS011;32536;47.128;8.746;2023-12-04T01:31:57;1.73;;;1.63;;
46777;SDS011;32536;47.128;8.746;2023-12-04T01:34:24;1.83;;;1.58;;
46777;SDS011;32536;47.128;8.746;2023-12-04T01:36:51;2.40;;;1.88;;
46777;SDS011;32536;47.128;8.746;2023-12-04T01:39:18;1.45;;;1.35;;
46777;SDS011;32536;47.128;8.746;2023-12-04T01:41:44;1.80;;;1.25;;
46777;SDS011;32536;47.128;8.746;2023-12-04T01:44:11;1.67;;;1.35;;
46777;SDS011;32536;47.128;8.746;2023-12-04T01:46:38;1.95;;;1.77;;
46777;SDS011;32536;47.128;8.746;2023-12-04T01:49:05;1.77;;;1.65;;
46777;SDS011;32536;47.128;8.746;2023-12-04T01:51:32;1.63;;;1.48;;
46777;SDS011;32536;47.128;8.746;2023-12-04T01:53:59;1.77;;;1.63;;
46777;SDS011;32536;47.128;8.746;2023-12-04T01:56:30;1.98;;;1.55;;
46777;SDS011;32536;47.128;8.746;2023-12-04T01:58:57;2.30;;;2.03;;
46777;SDS011;32536;47.128;8.746;2023-12-04T02:01:24;2.78;;;1.98;;
46777;SDS011;32536;47.128;8.746;2023-12-04T02:03:53;3.42;;;2.50;;
46777;SDS011;32536;47.128;8.746;2023-12-04T02:06:21;2.42;;;1.85;;
46777;SDS011;32536;47.128;8.746;2023-12-04T02:08:48;2.33;;;1.60;;
46777;SDS011;32536;47.128;8.746;2023-12-04T02:11:15;1.45;;;1.35;;
46777;SDS011;32536;47.128;8.746;2023-12-04T02:13:42;1.40;;;1.17;;
46777;SDS011;32536;47.128;8.746;2023-12-04T02:16:10;2.03;;;1.67;;
46777;SDS011;32536;47.128;8.746;2023-12-04T02:18:39;1.58;;;1.48;;
46777;SDS011;32536;47.128;8.746;2023-12-04T02:21:07;1.92;;;1.50;;
46777;SDS011;32536;47.128;8.746;2023-12-04T02:23:34;1.40;;;1.05;;
46777;SDS011;32536;47.128;8.746;2023-12-04T02:26:03;1.77;;;1.67;;
46777;SDS011;32536;47.128;8.746;2023-12-04T02:28:39;1.52;;;1.42;;
46777;SDS011;32536;47.128;8.746;2023-12-04T02:31:07;1.40;;;1.17;;
46777;SDS011;32536;47.128;8.746;2023-12-04T02:33:36;2.08;;;1.65;;
46777;SDS011;32536;47.128;8.746;2023-12-04T02:36:05;2.15;;;1.92;;
46777;SDS011;32536;47.128;8.746;2023-12-04T02:38:34;1.58;;;1.48;;
46777;SDS011;32536;47.128;8.746;2023-12-04T02:41:01;2.30;;;2.10;;
46777;SDS011;32536;47.128;8.746;2023-12-04T02:43:28;2.25;;;2.05;;
46777;SDS011;32536;47.128;8.746;2023-12-04T02:45:55;2.47;;;2.28;;
46777;SDS011;32536;47.128;8.746;2023-12-04T02:48:22;2.08;;;1.95;;
46777;SDS011;32536;47.128;8.746;2023-12-04T02:50:48;1.92;;;1.73;;
46777;SDS011;32536;47.128;8.746;2023-12-04T02:53:35;2.10;;;1.73;;
46777;SDS011;32536;47.128;8.746;2023-12-04T02:56:02;1.52;;;1.35;;
46777;SDS011;32536;47.128;8.746;2023-12-04T02:58:29;1.52;;;1.40;;
46777;SDS011;32536;47.128;8.746;2023-12-04T03:00:56;1.65;;;1.55;;
46777;SDS011;32536;47.128;8.746;2023-12-04T03:03:23;1.83;;;1.65;;
46777;SDS011;32536;47.128;8.746;2023-12-04T03:05:50;1.60;;;1.35;;
46777;SDS011;32536;47.128;8.746;2023-12-04T03:08:17;2.22;;;2.03;;
46777;SDS011;32536;47.128;8.746;2023-12-04T03:10:43;1.63;;;1.52;;
46777;SDS011;32536;47.128;8.746;2023-12-04T03:13:10;1.35;;;1.23;;
46777;SDS011;32536;47.128;8.746;2023-12-04T03:15:37;2.13;;;1.77;;
46777;SDS011;32536;47.128;8.746;2023-12-04T03:18:04;1.60;;;1.48;;
46777;SDS011;32536;47.128;8.746;2023-12-04T03:20:32;2.10;;;1.90;;
46777;SDS011;32536;47.128;8.746;2023-12-04T03:22:59;1.83;;;1.70;;
46777;SDS011;32536;47.128;8.746;2023-12-04T03:25:25;1.52;;;1.40;;
46777;SDS011;32536;47.128;8.746;2023-12-04T03:27:52;3.10;;;1.83;;
46777;SDS011;32536;47.128;8.746;2023-12-04T03:30:19;1.70;;;1.55;;
46777;SDS011;32536;47.128;8.746;2023-12-04T03:32:46;1.58;;;1.17;;
46777;SDS011;32536;47.128;8.746;2023-12-04T03:35:13;1.95;;;1.73;;
46777;SDS011;32536;47.128;8.746;2023-12-04T03:37:39;2.22;;;1.67;;
46777;SDS011;32536;47.128;8.746;2023-12-04T03:40:06;2.30;;;1.85;;
46777;SDS011;32536;47.128;8.746;2023-12-04T03:42:34;2.10;;;1.80;;
46777;SDS011;32536;47.128;8.746;2023-12-04T03:45:00;3.72;;;3.17;;
46777;SDS011;32536;47.128;8.746;2023-12-04T03:47:27;2.35;;;2.15;;
46777;SDS011;32536;47.128;8.746;2023-12-04T03:49:54;2.33;;;1.45;;
46777;SDS011;32536;47.128;8.746;2023-12-04T03:52:20;1.80;;;1.67;;
46777;SDS011;32536;47.128;8.746;2023-12-04T03:54:47;1.58;;;1.48;;
46777;SDS011;32536;47.128;8.746;2023-12-04T03:57:14;3.00;;;1.58;;
46777;SDS011;32536;47.128;8.746;2023-12-04T03:59:41;2.38;;;1.85;;
46777;SDS011;32536;47.128;8.746;2023-12-04T04:02:09;1.70;;;1.52;;
46777;SDS011;32536;47.128;8.746;2023-12-04T04:04:35;2.78;;;2.58;;
46777;SDS011;32536;47.128;8.746;2023-12-04T04:07:02;1.73;;;1.50;;
46777;SDS011;32536;47.128;8.746;2023-12-04T04:09:29;2.20;;;1.98;;
46777;SDS011;32536;47.128;8.746;2023-12-04T04:11:56;2.13;;;1.77;;
46777;SDS011;32536;47.128;8.746;2023-12-04T04:14:23;1.63;;;1.52;;
46777;SDS011;32536;47.128;8.746;2023-12-04T04:16:50;2.67;;;2.47;;
46777;SDS011;32536;47.128;8.746;2023-12-04T04:19:17;1.60;;;1.27;;
46777;SDS011;32536;47.128;8.746;2023-12-04T04:21:43;1.65;;;1.55;;
46777;SDS011;32536;47.128;8.746;2023-12-04T04:24:10;1.55;;;1.40;;
46777;SDS011;32536;47.128;8.746;2023-12-04T04:26:37;1.80;;;1.48;;
46777;SDS011;32536;47.128;8.746;2023-12-04T04:29:04;1.52;;;1.27;;
46777;SDS011;32536;47.128;8.746;2023-12-04T04:31:31;1.55;;;1.33;;
46777;SDS011;32536;47.128;8.746;2023-12-04T04:33:58;1.88;;;1.77;;
46777;SDS011;32536;47.128;8.746;2023-12-04T04:36:24;1.75;;;1.65;;
46777;SDS011;32536;47.128;8.746;2023-12-04T04:38:51;1.63;;;1.40;;
46777;SDS011;32536;47.128;8.746;2023-12-04T04:41:18;1.98;;;1.77;;
46777;SDS011;32536;47.128;8.746;2023-12-04T04:43:45;2.13;;;1.90;;
46777;SDS011;32536;47.128;8.746;2023-12-04T04:46:11;2.05;;;1.85;;
46777;SDS011;32536;47.128;8.746;2023-12-04T04:48:39;2.30;;;1.65;;
46777;SDS011;32536;47.128;8.746;2023-12-04T04:51:07;2.33;;;1.92;;
46777;SDS011;32536;47.128;8.746;2023-12-04T04:53:42;1.52;;;1.42;;
46777;SDS011;32536;47.128;8.746;2023-12-04T04:56:09;2.13;;;1.73;;
46777;SDS011;32536;47.128;8.746;2023-12-04T04:58:36;2.45;;;2.35;;
46777;SDS011;32536;47.128;8.746;2023-12-04T05:01:03;2.35;;;2.15;;
46777;SDS011;32536;47.128;8.746;2023-12-04T05:03:30;1.67;;;1.48;;
46777;SDS011;32536;47.128;8.746;2023-12-04T05:05:57;1.98;;;1.65;;
46777;SDS011;32536;47.128;8.746;2023-12-04T05:08:24;2.13;;;1.58;;
46777;SDS011;32536;47.128;8.746;2023-12-04T05:10:51;1.58;;;1.48;;
46777;SDS011;32536;47.128;8.746;2023-12-04T05:13:18;1.90;;;1.67;;
46777;SDS011;32536;47.128;8.746;2023-12-04T05:15:44;2.75;;;1.88;;
46777;SDS011;32536;47.128;8.746;2023-12-04T05:18:11;1.85;;;1.30;;
46777;SDS011;32536;47.128;8.746;2023-12-04T05:20:38;1.70;;;1.42;;
46777;SDS011;32536;47.128;8.746;2023-12-04T05:23:05;2.10;;;1.85;;
46777;SDS011;32536;47.128;8.746;2023-12-04T05:25:31;1.63;;;1.40;;
46777;SDS011;32536;47.128;8.746;2023-12-04T05:27:58;2.53;;;1.95;;
46777;SDS011;32536;47.128;8.746;2023-12-04T05:30:25;3.08;;;2.08;;
46777;SDS011;32536;47.128;8.746;2023-12-04T05:32:52;1.95;;;1.05;;
46777;SDS011;32536;47.128;8.746;2023-12-04T05:35:20;2.45;;;2.25;;
46777;SDS011;32536;47.128;8.746;2023-12-04T05:37:47;1.95;;;1.45;;
46777;SDS011;32536;47.128;8.746;2023-12-04T05:40:14;2.28;;;1.52;;
46777;SDS011;32536;47.128;8.746;2023-12-04T05:42:40;2.08;;;1.13;;
46777;SDS011;32536;47.128;8.746;2023-12-04T05:45:08;1.98;;;1.65;;
46777;SDS011;32536;47.128;8.746;2023-12-04T05:47:35;2.17;;;1.92;;
46777;SDS011;32536;47.128;8.746;2023-12-04T05:50:02;2.40;;;1.85;;
46777;SDS011;32536;47.128;8.746;2023-12-04T05:52:29;2.70;;;1.75;;
46777;SDS011;32536;47.128;8.746;2023-12-04T05:54:55;1.83;;;1.55;;
46777;SDS011;32536;47.128;8.746;2023-12-04T05:57:22;2.88;;;2.53;;
46777;SDS011;32536;47.128;8.746;2023-12-04T05:59:49;2.83;;;2.45;;
46777;SDS011;32536;47.128;8.746;2023-12-04T06:02:16;2.33;;;1.65;;
46777;SDS011;32536;47.128;8.746;2023-12-04T06:04:42;2.05;;;1.83;;
46777;SDS011;32536;47.128;8.746;2023-12-04T06:07:09;1.95;;;1.63;;
46777;SDS011;32536;47.128;8.746;2023-12-04T06:09:36;2.95;;;2.08;;
46777;SDS011;32536;47.128;8.746;2023-12-04T06:12:03;4.43;;;1.88;;
46777;SDS011;32536;47.128;8.746;2023-12-04T06:14:48;2.13;;;1.73;;
46777;SDS011;32536;47.128;8.746;2023-12-04T06:17:16;2.15;;;1.60;;
46777;SDS011;32536;47.128;8.746;2023-12-04T06:19:43;2.17;;;1.58;;
46777;SDS011;32536;47.128;8.746;2023-12-04T06:22:11;2.00;;;1.52;;
46777;SDS011;32536;47.128;8.746;2023-12-04T06:24:38;3.00;;;2.13;;
46777;SDS011;32536;47.128;8.746;2023-12-04T06:27:05;5.15;;;3.50;;
46777;SDS011;32536;47.128;8.746;2023-12-04T06:29:34;3.58;;;2.15;;
46777;SDS011;32536;47.128;8.746;2023-12-04T06:32:02;3.35;;;2.15;;
46777;SDS011;32536;47.128;8.746;2023-12-04T06:34:30;3.05;;;2.30;;
46777;SDS011;32536;47.128;8.746;2023-12-04T06:36:57;2.60;;;1.92;;
46777;SDS011;32536;47.128;8.746;2023-12-04T06:39:25;3.90;;;2.17;;
46777;SDS011;32536;47.128;8.746;2023-12-04T06:41:59;6.65;;;3.00;;
46777;SDS011;32536;47.128;8.746;2023-12-04T06:44:26;5.38;;;2.33;;
46777;SDS011;32536;47.128;8.746;2023-12-04T06:46:53;3.30;;;2.05;;
46777;SDS011;32536;47.128;8.746;2023-12-04T06:49:22;5.78;;;2.58;;
46777;SDS011;32536;47.128;8.746;2023-12-04T06:51:50;5.60;;;2.78;;
46777;SDS011;32536;47.128;8.746;2023-12-04T06:54:17;3.63;;;1.98;;
46777;SDS011;32536;47.128;8.746;2023-12-04T06:56:44;3.45;;;2.05;;
46777;SDS011;32536;47.128;8.746;2023-12-04T06:59:11;4.50;;;2.38;;
46777;SDS011;32536;47.128;8.746;2023-12-04T07:01:37;5.45;;;2.53;;
46777;SDS011;32536;47.128;8.746;2023-12-04T07:04:04;2.55;;;1.45;;
46777;SDS011;32536;47.128;8.746;2023-12-04T07:06:35;2.92;;;1.88;;
46777;SDS011;32536;47.128;8.746;2023-12-04T07:09:03;3.60;;;1.65;;
46777;SDS011;32536;47.128;8.746;2023-12-04T07:11:30;3.08;;;1.70;;
46777;SDS011;32536;47.128;8.746;2023-12-04T07:13:57;4.03;;;1.88;;
46777;SDS011;32536;47.128;8.746;2023-12-04T07:16:24;3.70;;;1.85;;
46777;SDS011;32536;47.128;8.746;2023-12-04T07:18:51;2.95;;;1.63;;
46777;SDS011;32536;47.128;8.746;2023-12-04T07:21:18;2.85;;;2.15;;
46777;SDS011;32536;47.128;8.746;2023-12-04T07:23:44;3.08;;;2.08;;
46777;SDS011;32536;47.128;8.746;2023-12-04T07:26:12;3.60;;;1.75;;
46777;SDS011;32536;47.128;8.746;2023-12-04T07:28:39;3.22;;;2.33;;
46777;SDS011;32536;47.128;8.746;2023-12-04T07:31:06;2.63;;;1.75;;
46777;SDS011;32536;47.128;8.746;2023-12-04T07:33:32;3.65;;;1.85;;
46777;SDS011;32536;47.128;8.746;2023-12-04T07:36:00;5.47;;;2.80;;
46777;SDS011;32536;47.128;8.746;2023-12-04T07:38:27;3.55;;;2.42;;
46777;SDS011;32536;47.128;8.746;2023-12-04T07:40:54;3.38;;;2.20;;
46777;SDS011;32536;47.128;8.746;2023-12-04T07:43:21;2.22;;;1.00;;
46777;SDS011;32536;47.128;8.746;2023-12-04T07:45:48;5.15;;;2.63;;
46777;SDS011;32536;47.128;8.746;2023-12-04T07:48:14;2.72;;;1.60;;
46777;SDS011;32536;47.128;8.746;2023-12-04T07:50:42;5.20;;;2.33;;
46777;SDS011;32536;47.128;8.746;2023-12-04T07:53:09;6.10;;;3.30;;
46777;SDS011;32536;47.128;8.746;2023-12-04T07:55:37;6.43;;;3.60;;
46777;SDS011;32536;47.128;8.746;2023-12-04T07:58:04;6.82;;;3.25;;
46777;SDS011;32536;47.128;8.746;2023-12-04T08:00:31;5.30;;;2.55;;
46777;SDS011;32536;47.128;8.746;2023-12-04T08:02:58;5.18;;;2.47;;
46777;SDS011;32536;47.128;8.746;2023-12-04T08:05:25;5.25;;;2.88;;
46777;SDS011;32536;47.128;8.746;2023-12-04T08:07:53;4.47;;;2.28;;
46777;SDS011;32536;47.128;8.746;2023-12-04T08:10:19;4.72;;;2.83;;
46777;SDS011;32536;47.128;8.746;2023-12-04T08:12:48;3.45;;;1.85;;
46777;SDS011;32536;47.128;8.746;2023-12-04T08:15:15;2.63;;;1.83;;
46777;SDS011;32536;47.128;8.746;2023-12-04T08:17:42;2.72;;;2.05;;
46777;SDS011;32536;47.128;8.746;2023-12-04T08:20:09;4.10;;;1.80;;
46777;SDS011;32536;47.128;8.746;2023-12-04T08:22:40;2.45;;;1.45;;
46777;SDS011;32536;47.128;8.746;2023-12-04T08:25:07;3.83;;;2.08;;
46777;SDS011;32536;47.128;8.746;2023-12-04T08:27:35;3.30;;;2.20;;
46777;SDS011;32536;47.128;8.746;2023-12-04T08:30:03;3.67;;;2.25;;
46777;SDS011;32536;47.128;8.746;2023-12-04T08:32:31;3.22;;;1.95;;
46777;SDS011;32536;47.128;8.746;2023-12-04T08:34:58;2.88;;;1.50;;
46777;SDS011;32536;47.128;8.746;2023-12-04T08:37:25;2.72;;;1.52;;
46777;SDS011;32536;47.128;8.746;2023-12-04T08:39:52;1.85;;;1.40;;
46777;SDS011;32536;47.128;8.746;2023-12-04T08:42:19;5.90;;;4.53;;
46777;SDS011;32536;47.128;8.746;2023-12-04T08:44:45;5.55;;;2.22;;
46777;SDS011;32536;47.128;8.746;2023-12-04T08:47:13;4.40;;;2.15;;
46777;SDS011;32536;47.128;8.746;2023-12-04T08:49:40;3.28;;;2.17;;
46777;SDS011;32536;47.128;8.746;2023-12-04T08:52:07;2.75;;;1.83;;
46777;SDS011;32536;47.128;8.746;2023-12-04T08:54:33;2.60;;;1.85;;
46777;SDS011;32536;47.128;8.746;2023-12-04T08:57:00;3.58;;;2.03;;
46777;SDS011;32536;47.128;8.746;2023-12-04T08:59:27;3.38;;;1.92;;
46777;SDS011;32536;47.128;8.746;2023-12-04T09:01:54;3.25;;;2.17;;
46777;SDS011;32536;47.128;8.746;2023-12-04T09:04:20;3.45;;;1.83;;
46777;SDS011;32536;47.128;8.746;2023-12-04T09:06:47;2.70;;;1.60;;
46777;SDS011;32536;47.128;8.746;2023-12-04T09:09:14;2.20;;;1.65;;
46777;SDS011;32536;47.128;8.746;2023-12-04T09:11:42;2.85;;;2.00;;
46777;SDS011;32536;47.128;8.746;2023-12-04T09:14:09;2.72;;;1.58;;
46777;SDS011;32536;47.128;8.746;2023-12-04T09:16:36;2.72;;;1.73;;
46777;SDS011;32536;47.128;8.746;2023-12-04T09:19:03;2.05;;;1.40;;
46777;SDS011;32536;47.128;8.746;2023-12-04T09:21:30;3.47;;;1.42;;
46777;SDS011;32536;47.128;8.746;2023-12-04T09:23:57;2.47;;;1.70;;
46777;SDS011;32536;47.128;8.746;2023-12-04T09:26:23;2.72;;;1.52;;
46777;SDS011;32536;47.128;8.746;2023-12-04T09:28:50;2.90;;;1.88;;
46777;SDS011;32536;47.128;8.746;2023-12-04T09:31:17;1.75;;;1.13;;
46777;SDS011;32536;47.128;8.746;2023-12-04T09:33:44;2.30;;;1.80;;
46777;SDS011;32536;47.128;8.746;2023-12-04T09:36:10;1.88;;;1.38;;
46777;SDS011;32536;47.128;8.746;2023-12-04T09:38:37;3.67;;;2.53;;
46777;SDS011;32536;47.128;8.746;2023-12-04T09:41:04;5.63;;;3.28;;
46777;SDS011;32536;47.128;8.746;2023-12-04T09:43:32;6.40;;;2.70;;
46777;SDS011;32536;47.128;8.746;2023-12-04T09:45:59;3.00;;;1.83;;
46777;SDS011;32536;47.128;8.746;2023-12-04T09:48:27;2.28;;;1.52;;
46777;SDS011;32536;47.128;8.746;2023-12-04T09:50:55;2.42;;;1.77;;
46777;SDS011;32536;47.128;8.746;2023-12-04T09:53:24;2.40;;;1.67;;
46777;SDS011;32536;47.128;8.746;2023-12-04T09:56:27;2.50;;;1.50;;
46777;SDS011;32536;47.128;8.746;2023-12-04T09:58:57;3.33;;;1.67;;
46777;SDS011;32536;47.128;8.746;2023-12-04T10:01:26;3.53;;;1.75;;
46777;SDS011;32536;47.128;8.746;2023-12-04T10:03:58;2.95;;;1.55;;
46777;SDS011;32536;47.128;8.746;2023-12-04T10:06:26;3.85;;;2.38;;
46777;SDS011;32536;47.128;8.746;2023-12-04T10:08:55;2.03;;;1.40;;
46777;SDS011;32536;47.128;8.746;2023-12-04T10:11:25;4.55;;;2.65;;
46777;SDS011;32536;47.128;8.746;2023-12-04T10:13:55;3.40;;;2.03;;
46777;SDS011;32536;47.128;8.746;2023-12-04T10:16:32;3.85;;;1.98;;
46777;SDS011;32536;47.128;8.746;2023-12-04T10:22:00;2.78;;;1.73;;
46777;SDS011;32536;47.128;8.746;2023-12-04T10:24:27;2.58;;;1.88;;
46777;SDS011;32536;47.128;8.746;2023-12-04T10:26:56;2.45;;;1.45;;
46777;SDS011;32536;47.128;8.746;2023-12-04T10:29:23;2.17;;;1.10;;
46777;SDS011;32536;47.128;8.746;2023-12-04T10:31:54;1.75;;;1.10;;
46777;SDS011;32536;47.128;8.746;2023-12-04T10:34:21;2.97;;;1.48;;
46777;SDS011;32536;47.128;8.746;2023-12-04T10:36:51;2.20;;;1.42;;
46777;SDS011;32536;47.128;8.746;2023-12-04T10:39:19;2.25;;;1.42;;
46777;SDS011;32536;47.128;8.746;2023-12-04T10:41:48;4.68;;;2.22;;
46777;SDS011;32536;47.128;8.746;2023-12-04T10:44:27;5.07;;;2.72;;
46777;SDS011;32536;47.128;8.746;2023-12-04T10:46:55;5.47;;;2.85;;
46777;SDS011;32536;47.128;8.746;2023-12-04T10:49:27;4.35;;;2.55;;
46777;SDS011;32536;47.128;8.746;2023-12-04T10:51:57;3.75;;;2.03;;
46777;SDS011;32536;47.128;8.746;2023-12-04T10:54:25;2.92;;;1.85;;
46777;SDS011;32536;47.128;8.746;2023-12-04T10:56:52;2.70;;;1.70;;
46777;SDS011;32536;47.128;8.746;2023-12-04T10:59:30;2.13;;;1.20;;
46777;SDS011;32536;47.128;8.746;2023-12-04T11:02:03;1.60;;;1.30;;
46777;SDS011;32536;47.128;8.746;2023-12-04T11:04:35;2.80;;;1.92;;
46777;SDS011;32536;47.128;8.746;2023-12-04T11:07:04;3.17;;;2.22;;
46777;SDS011;32536;47.128;8.746;2023-12-04T11:09:33;3.22;;;1.40;;
46777;SDS011;32536;47.128;8.746;2023-12-04T11:12:02;2.38;;;1.42;;
46777;SDS011;32536;47.128;8.746;2023-12-04T11:14:42;1.95;;;1.27;;
46777;SDS011;32536;47.128;8.746;2023-12-04T11:17:13;4.50;;;2.92;;
46777;SDS011;32536;47.128;8.746;2023-12-04T11:19:52;3.72;;;1.80;;
46777;SDS011;32536;47.128;8.746;2023-12-04T11:22:25;7.50;;;3.00;;
46777;SDS011;32536;47.128;8.746;2023-12-04T11:24:52;5.68;;;3.95;;
46777;SDS011;32536;47.128;8.746;2023-12-04T11:27:19;5.63;;;2.08;;
46777;SDS011;32536;47.128;8.746;2023-12-04T11:29:46;3.00;;;1.95;;
46777;SDS011;32536;47.128;8.746;2023-12-04T11:32:15;3.67;;;2.05;;
46777;SDS011;32536;47.128;8.746;2023-12-04T11:34:47;4.25;;;2.15;;
46777;SDS011;32536;47.128;8.746;2023-12-04T11:37:19;2.38;;;1.67;;
46777;SDS011;32536;47.128;8.746;2023-12-04T11:39:52;2.20;;;1.42;;
46777;SDS011;32536;47.128;8.746;2023-12-04T11:42:23;2.33;;;1.45;;
46777;SDS011;32536;47.128;8.746;2023-12-04T11:44:57;3.55;;;1.80;;
46777;SDS011;32536;47.128;8.746;2023-12-04T11:47:24;2.10;;;1.30;;
46777;SDS011;32536;47.128;8.746;2023-12-04T11:49:52;2.15;;;1.70;;
46777;SDS011;32536;47.128;8.746;2023-12-04T11:52:19;1.92;;;1.15;;
46777;SDS011;32536;47.128;8.746;2023-12-04T11:55:03;1.55;;;1.13;;
46777;SDS011;32536;47.128;8.746;2023-12-04T11:57:34;2.17;;;1.33;;
46777;SDS011;32536;47.128;8.746;2023-12-04T12:00:12;2.17;;;1.48;;
46777;SDS011;32536;47.128;8.746;2023-12-04T12:02:47;2.80;;;1.63;;
46777;SDS011;32536;47.128;8.746;2023-12-04T12:05:19;3.08;;;1.58;;
46777;SDS011;32536;47.128;8.746;2023-12-04T12:07:46;2.28;;;1.83;;
46777;SDS011;32536;47.128;8.746;2023-12-04T12:10:15;2.38;;;1.45;;
46777;SDS011;32536;47.128;8.746;2023-12-04T12:12:43;2.85;;;1.80;;
46777;SDS011;32536;47.128;8.746;2023-12-04T12:15:10;3.25;;;1.92;;
46777;SDS011;32536;47.128;8.746;2023-12-04T12:17:38;2.38;;;1.33;;
46777;SDS011;32536;47.128;8.746;2023-12-04T12:22:36;1.40;;;1.00;;
46777;SDS011;32536;47.128;8.746;2023-12-04T12:25:07;2.97;;;1.70;;
46777;SDS011;32536;47.128;8.746;2023-12-04T12:27:35;2.25;;;1.38;;
46777;SDS011;32536;47.128;8.746;2023-12-04T12:30:03;2.83;;;1.30;;
46777;SDS011;32536;47.128;8.746;2023-12-04T12:32:32;3.10;;;1.67;;
46777;SDS011;32536;47.128;8.746;2023-12-04T12:35:00;3.17;;;2.70;;
46777;SDS011;32536;47.128;8.746;2023-12-04T12:37:27;3.17;;;2.30;;
46777;SDS011;32536;47.128;8.746;2023-12-04T12:39:54;3.58;;;1.83;;
46777;SDS011;32536;47.128;8.746;2023-12-04T12:42:24;3.40;;;2.03;;
46777;SDS011;32536;47.128;8.746;2023-12-04T12:44:52;1.77;;;1.25;;
46777;SDS011;32536;47.128;8.746;2023-12-04T12:47:21;1.90;;;1.70;;
46777;SDS011;32536;47.128;8.746;2023-12-04T12:49:48;2.22;;;1.77;;
46777;SDS011;32536;47.128;8.746;2023-12-04T12:52:15;2.08;;;1.75;;
46777;SDS011;32536;47.128;8.746;2023-12-04T12:54:43;1.58;;;1.40;;
46777;SDS011;32536;47.128;8.746;2023-12-04T12:57:10;2.92;;;2.10;;
46777;SDS011;32536;47.128;8.746;2023-12-04T12:59:38;2.22;;;1.20;;
46777;SDS011;32536;47.128;8.746;2023-12-04T13:02:06;3.25;;;2.13;;
46777;SDS011;32536;47.128;8.746;2023-12-04T13:04:36;2.05;;;1.75;;
46777;SDS011;32536;47.128;8.746;2023-12-04T13:07:06;2.47;;;1.95;;
46777;SDS011;32536;47.128;8.746;2023-12-04T13:09:33;1.90;;;1.45;;
46777;SDS011;32536;47.128;8.746;2023-12-04T13:12:04;1.70;;;1.33;;
46777;SDS011;32536;47.128;8.746;2023-12-04T13:14:32;4.15;;;2.03;;
46777;SDS011;32536;47.128;8.746;2023-12-04T13:17:03;3.10;;;1.73;;
46777;SDS011;32536;47.128;8.746;2023-12-04T13:19:32;3.65;;;1.48;;
46777;SDS011;32536;47.128;8.746;2023-12-04T13:22:00;2.30;;;2.05;;
46777;SDS011;32536;47.128;8.746;2023-12-04T13:24:27;1.75;;;1.23;;
46777;SDS011;32536;47.128;8.746;2023-12-04T13:26:54;2.00;;;1.27;;
46777;SDS011;32536;47.128;8.746;2023-12-04T13:29:20;2.80;;;1.38;;
46777;SDS011;32536;47.128;8.746;2023-12-04T13:31:48;4.95;;;2.65;;
46777;SDS011;32536;47.128;8.746;2023-12-04T13:34:18;2.55;;;1.42;;
46777;SDS011;32536;47.128;8.746;2023-12-04T13:36:45;2.08;;;1.75;;
46777;SDS011;32536;47.128;8.746;2023-12-04T13:39:12;2.17;;;1.73;;
46777;SDS011;32536;47.128;8.746;2023-12-04T13:41:59;2.35;;;1.42;;
46777;SDS011;32536;47.128;8.746;2023-12-04T13:47:10;2.25;;;1.40;;
46777;SDS011;32536;47.128;8.746;2023-12-04T13:49:37;1.42;;;1.05;;
46777;SDS011;32536;47.128;8.746;2023-12-04T13:52:04;1.95;;;1.27;;
46777;SDS011;32536;47.128;8.746;2023-12-04T13:54:33;1.42;;;1.10;;
46777;SDS011;32536;47.128;8.746;2023-12-04T13:57:10;1.77;;;1.25;;
46777;SDS011;32536;47.128;8.746;2023-12-04T13:59:44;1.48;;;1.13;;
46777;SDS011;32536;47.128;8.746;2023-12-04T14:02:11;1.55;;;1.15;;
46777;SDS011;32536;47.128;8.746;2023-12-04T14:04:37;1.92;;;1.42;;
46777;SDS011;32536;47.128;8.746;2023-12-04T14:07:07;1.60;;;1.27;;
46777;SDS011;32536;47.128;8.746;2023-12-04T14:09:35;1.63;;;1.10;;
46777;SDS011;32536;47.128;8.746;2023-12-04T14:12:02;2.58;;;1.50;;
46777;SDS011;32536;47.128;8.746;2023-12-04T14:14:30;2.22;;;1.65;;
46777;SDS011;32536;47.128;8.746;2023-12-04T14:16:59;2.03;;;1.52;;
46777;SDS011;32536;47.128;8.746;2023-12-04T14:19:29;1.75;;;1.35;;
46777;SDS011;32536;47.128;8.746;2023-12-04T14:21:55;2.53;;;1.55;;
46777;SDS011;32536;47.128;8.746;2023-12-04T14:24:22;1.75;;;1.33;;
46777;SDS011;32536;47.128;8.746;2023-12-04T14:26:49;2.90;;;1.77;;
46777;SDS011;32536;47.128;8.746;2023-12-04T14:29:18;2.53;;;1.85;;
46777;SDS011;32536;47.128;8.746;2023-12-04T14:31:45;3.85;;;2.17;;
46777;SDS011;32536;47.128;8.746;2023-12-04T14:34:12;2.97;;;1.42;;
46777;SDS011;32536;47.128;8.746;2023-12-04T14:36:39;2.50;;;1.73;;
46777;SDS011;32536;47.128;8.746;2023-12-04T14:39:05;3.80;;;2.13;;
46777;SDS011;32536;47.128;8.746;2023-12-04T14:41:32;2.33;;;1.35;;
46777;SDS011;32536;47.128;8.746;2023-12-04T14:43:59;1.77;;;1.35;;
46777;SDS011;32536;47.128;8.746;2023-12-04T14:46:26;1.83;;;1.33;;
46777;SDS011;32536;47.128;8.746;2023-12-04T14:48:53;2.35;;;1.40;;
46777;SDS011;32536;47.128;8.746;2023-12-04T14:51:20;2.13;;;1.48;;
46777;SDS011;32536;47.128;8.746;2023-12-04T14:57:03;2.38;;;1.50;;
46777;SDS011;32536;47.128;8.746;2023-12-04T14:59:40;1.50;;;1.05;;
46777;SDS011;32536;47.128;8.746;2023-12-04T15:02:25;1.80;;;1.30;;
46777;SDS011;32536;47.128;8.746;2023-12-04T15:04:55;1.92;;;1.23;;